TimeAKDT,TemperatureF,Dew PointF,Humidity,Sea Level PressureIn,VisibilityMPH,Wind Direction,Wind SpeedMPH,Gust SpeedMPH,PrecipitationIn,Events,Conditions,WindDirDegrees,DateUTC
12:53 AM,23.0,10.0,58,30.59,10.0,North,10.4,-,N/A,,Clear,10,2012-10-10 08:53:00
1:53 AM,21.0,10.0,63,30.58,10.0,North,8.1,-,N/A,,Clear,360,2012-10-10 09:53:00
2:53 AM,19.9,10.0,65,30.58,10.0,North,5.8,-,N/A,,Clear,360,2012-10-10 10:53:00
3:53 AM,19.0,9.0,65,30.58,10.0,NNW,6.9,-,N/A,,Clear,340,2012-10-10 11:53:00
4:53 AM,19.0,9.0,65,30.57,10.0,NNW,5.8,-,N/A,,Clear,340,2012-10-10 12:53:00
5:53 AM,19.0,9.0,65,30.57,10.0,North,8.1,-,N/A,,Clear,350,2012-10-10 13:53:00
6:53 AM,19.0,9.0,65,30.56,10.0,North,9.2,-,N/A,,Clear,10,2012-10-10 14:53:00
7:53 AM,18.0,9.0,68,30.56,10.0,North,10.4,-,N/A,,Clear,10,2012-10-10 15:53:00
8:53 AM,18.0,8.1,65,30.55,10.0,North,10.4,-,N/A,,Clear,10,2012-10-10 16:53:00
9:53 AM,19.0,8.1,62,30.55,10.0,North,6.9,-,N/A,,Clear,360,2012-10-10 17:53:00
10:53 AM,21.0,9.0,60,30.56,10.0,North,6.9,-,N/A,,Clear,360,2012-10-10 18:53:00
11:53 AM,24.1,9.0,53,30.55,10.0,NNE,9.2,-,N/A,,Clear,20,2012-10-10 19:53:00
12:53 PM,25.0,10.0,53,30.56,10.0,NNE,11.5,17.3,N/A,,Clear,20,2012-10-10 20:53:00
1:53 PM,28.0,10.0,47,30.56,10.0,Variable,5.8,-,N/A,,Clear,0,2012-10-10 21:53:00
2:53 PM,30.0,10.0,43,30.54,10.0,NNE,10.4,-,N/A,,Clear,20,2012-10-10 22:53:00
3:53 PM,30.0,10.0,43,30.52,10.0,NNE,9.2,-,N/A,,Clear,30,2012-10-10 23:53:00
4:53 PM,30.9,10.0,42,30.51,10.0,NNE,9.2,-,N/A,,Clear,20,2012-10-11 00:53:00
5:53 PM,30.9,9.0,40,30.49,10.0,NE,6.9,-,N/A,,Clear,40,2012-10-11 01:53:00
6:53 PM,28.0,10.9,49,30.49,10.0,NNE,4.6,-,N/A,,Partly Cloudy,30,2012-10-11 02:53:00
7:53 PM,26.1,10.9,53,30.47,10.0,North,4.6,-,N/A,,Partly Cloudy,360,2012-10-11 03:53:00
8:53 PM,21.9,10.0,60,30.47,10.0,NNW,3.5,-,N/A,,Partly Cloudy,330,2012-10-11 04:53:00
9:53 PM,19.9,10.0,65,30.45,10.0,North,5.8,-,N/A,,Clear,350,2012-10-11 05:53:00
10:53 PM,19.0,9.0,65,30.45,10.0,NNW,4.6,-,N/A,,Clear,340,2012-10-11 06:53:00
11:53 PM,19.0,9.0,65,30.43,10.0,NNW,4.6,-,N/A,,Clear,340,2012-10-11 07:53:00